createdAt,value
2017-07-22T00:01:15.774Z,19.20
2017-07-22T00:03:50.592Z,19.50
2017-07-22T00:06:25.479Z,19.60
2017-07-22T00:09:01.240Z,19.60
2017-07-22T00:11:36.092Z,19.50
2017-07-22T00:14:14.223Z,19.40
2017-07-22T00:16:49.011Z,19.40
2017-07-22T00:19:23.954Z,19.50
2017-07-22T00:21:58.858Z,19.60
2017-07-22T00:24:33.744Z,19.70
2017-07-22T00:27:08.563Z,19.50
2017-07-22T00:29:43.511Z,19.20
2017-07-22T00:32:19.211Z,19.30
2017-07-22T00:34:54.175Z,19.20
2017-07-22T00:37:29.003Z,19.30
2017-07-22T00:40:14.041Z,19.30
2017-07-22T00:42:48.965Z,19.00
2017-07-22T00:45:23.959Z,18.50
2017-07-22T00:47:58.853Z,18.40
2017-07-22T00:50:33.675Z,18.50
2017-07-22T00:53:08.491Z,18.60
2017-07-22T00:55:43.475Z,18.70
2017-07-22T00:58:18.391Z,18.80
2017-07-22T01:00:53.419Z,18.60
2017-07-22T01:03:28.355Z,18.70
2017-07-22T01:06:03.376Z,18.60
2017-07-22T01:08:39.141Z,18.90
2017-07-22T01:11:14.163Z,18.80
2017-07-22T01:13:49.907Z,18.80
2017-07-22T01:16:24.928Z,18.90
2017-07-22T01:18:59.986Z,18.80
2017-07-22T01:21:34.779Z,18.50
2017-07-22T01:24:10.567Z,18.50
2017-07-22T01:26:45.580Z,18.50
2017-07-22T01:29:20.494Z,18.70
2017-07-22T01:31:55.452Z,18.90
2017-07-22T01:34:30.451Z,19.00
2017-07-22T01:37:05.360Z,19.00
2017-07-22T01:39:40.318Z,19.10
2017-07-22T01:42:15.267Z,19.10
2017-07-22T01:44:50.313Z,19.20
2017-07-22T01:47:25.296Z,19.20
2017-07-22T01:50:00.073Z,19.20
2017-07-22T01:52:35.054Z,19.20
2017-07-22T01:55:10.020Z,18.80
2017-07-22T01:57:45.015Z,18.90
2017-07-22T02:00:24.636Z,18.90
2017-07-22T02:02:59.585Z,18.80
2017-07-22T02:05:34.597Z,18.90
2017-07-22T02:08:09.413Z,18.90
2017-07-22T02:10:44.355Z,19.00
2017-07-22T02:13:19.202Z,19.00
2017-07-22T02:15:54.109Z,19.10
2017-07-22T02:18:29.679Z,19.00
2017-07-22T02:21:04.599Z,19.10
2017-07-22T02:23:39.542Z,18.90
2017-07-22T02:26:14.519Z,19.10
2017-07-22T02:28:50.141Z,19.00
2017-07-22T02:31:25.061Z,19.10
2017-07-22T02:34:00.069Z,19.00
2017-07-22T02:36:34.922Z,19.10
2017-07-22T02:39:09.728Z,19.20
2017-07-22T02:41:45.479Z,19.30
2017-07-22T02:44:20.451Z,19.30
2017-07-22T02:46:56.176Z,19.30
2017-07-22T02:49:31.842Z,19.10
2017-07-22T02:52:06.834Z,19.20
2017-07-22T02:54:42.611Z,19.10
2017-07-22T02:57:17.520Z,19.00
2017-07-22T02:59:52.373Z,18.90
2017-07-22T03:02:27.348Z,19.00
2017-07-22T03:05:02.418Z,19.00
2017-07-22T03:07:37.446Z,19.00
2017-07-22T03:10:12.306Z,19.00
2017-07-22T03:12:47.228Z,19.10
2017-07-22T03:15:22.143Z,19.00
2017-07-22T03:17:57.051Z,19.10
2017-07-22T03:20:32.856Z,19.00
2017-07-22T03:23:07.731Z,19.00
2017-07-22T03:25:42.726Z,19.00
2017-07-22T03:28:17.655Z,18.80
2017-07-22T03:30:53.397Z,18.90
2017-07-22T03:33:28.364Z,18.90
2017-07-22T03:36:03.187Z,18.80
2017-07-22T03:38:38.154Z,18.80
2017-07-22T03:41:13.140Z,18.50
2017-07-22T03:43:48.148Z,18.70
2017-07-22T03:46:23.147Z,18.80
2017-07-22T03:48:58.096Z,18.80
2017-07-22T03:51:32.929Z,18.80
2017-07-22T03:54:07.932Z,18.90
2017-07-22T03:56:42.720Z,18.90
2017-07-22T03:59:17.653Z,18.90
2017-07-22T04:01:52.498Z,18.90
2017-07-22T04:04:27.490Z,19.10
2017-07-22T04:07:02.451Z,18.90
2017-07-22T04:09:37.354Z,18.90
2017-07-22T04:12:12.171Z,19.00
2017-07-22T04:14:47.207Z,18.90
2017-07-22T04:17:22.044Z,19.00
2017-07-22T04:19:57.782Z,19.00
2017-07-22T04:22:32.724Z,19.10
2017-07-22T04:25:07.699Z,19.10
2017-07-22T04:27:42.679Z,19.10
2017-07-22T04:30:17.695Z,19.20
2017-07-22T04:32:52.682Z,19.00
2017-07-22T04:35:27.632Z,19.10
2017-07-22T04:38:02.638Z,19.20
2017-07-22T04:40:37.564Z,19.10
2017-07-22T04:43:12.436Z,19.10
2017-07-22T04:45:47.415Z,19.20
2017-07-22T04:48:22.510Z,19.20
2017-07-22T04:50:57.372Z,19.20
2017-07-22T04:53:32.234Z,19.30
2017-07-22T04:56:07.963Z,19.30
2017-07-22T04:58:42.945Z,19.50
2017-07-22T05:01:17.910Z,19.30
2017-07-22T05:03:52.868Z,19.50
2017-07-22T05:06:27.871Z,19.30
2017-07-22T05:09:03.594Z,19.40
2017-07-22T05:11:38.431Z,19.20
2017-07-22T05:14:13.395Z,19.50
2017-07-22T05:16:48.391Z,19.60
2017-07-22T05:19:23.336Z,19.70
2017-07-22T05:21:58.178Z,19.80
2017-07-22T05:24:33.143Z,19.80
2017-07-22T05:27:08.042Z,19.70
2017-07-22T05:29:43.742Z,19.70
2017-07-22T05:32:18.679Z,19.80
2017-07-22T05:34:53.579Z,19.80
2017-07-22T05:37:28.439Z,19.90
2017-07-22T05:40:03.337Z,19.90
2017-07-22T05:42:38.269Z,20.00
2017-07-22T05:45:13.216Z,20.00
2017-07-22T05:47:48.171Z,19.90
2017-07-22T05:50:22.984Z,20.10
2017-07-22T05:52:57.823Z,19.90
2017-07-22T05:55:32.788Z,20.30
2017-07-22T05:58:07.742Z,20.30
2017-07-22T06:00:42.736Z,20.40
2017-07-22T06:03:17.631Z,20.40
2017-07-22T06:05:52.607Z,20.40
2017-07-22T06:08:27.491Z,20.50
2017-07-22T06:11:03.156Z,20.10
2017-07-22T06:13:37.959Z,20.30
2017-07-22T06:16:12.920Z,20.40
2017-07-22T06:18:47.940Z,20.50
2017-07-22T06:21:22.757Z,20.50
2017-07-22T06:23:57.684Z,20.70
2017-07-22T06:26:32.623Z,20.70
2017-07-22T06:29:07.471Z,21.00
2017-07-22T06:31:42.387Z,21.10
2017-07-22T06:34:17.395Z,20.80
2017-07-22T06:36:52.252Z,21.00
2017-07-22T06:39:27.272Z,20.90
2017-07-22T06:42:02.189Z,21.10
2017-07-22T06:44:37.022Z,21.30
2017-07-22T06:47:12.011Z,21.60
2017-07-22T06:49:47.000Z,21.90
2017-07-22T06:52:28.428Z,22.00
2017-07-22T06:55:03.472Z,22.10
2017-07-22T06:57:40.639Z,22.20
2017-07-22T07:00:15.431Z,22.50
2017-07-22T07:02:51.232Z,22.80
2017-07-22T07:05:26.172Z,22.90
2017-07-22T07:08:01.156Z,22.80
2017-07-22T07:10:47.708Z,23.10
2017-07-22T07:13:23.173Z,23.80
2017-07-22T07:15:58.187Z,23.60
2017-07-22T07:18:33.106Z,23.90
2017-07-22T07:21:07.981Z,24.10
2017-07-22T07:23:42.935Z,24.30
2017-07-22T07:26:18.597Z,24.40
2017-07-22T07:28:53.405Z,24.90
2017-07-22T07:31:28.317Z,25.10
2017-07-22T07:34:03.266Z,25.50
2017-07-22T07:36:38.208Z,25.90
2017-07-22T07:39:14.199Z,26.20
2017-07-22T07:41:49.215Z,26.40
2017-07-22T07:44:24.063Z,26.60
2017-07-22T07:46:59.001Z,26.40
2017-07-22T07:49:33.982Z,26.50
2017-07-22T07:52:08.924Z,26.40
2017-07-22T07:54:43.898Z,26.40
2017-07-22T07:57:20.752Z,26.40
2017-07-22T07:59:55.809Z,26.30
2017-07-22T08:02:30.605Z,26.40
2017-07-22T08:05:09.884Z,26.40
2017-07-22T08:07:44.912Z,26.10
2017-07-22T08:10:19.952Z,26.40
2017-07-22T08:12:59.360Z,26.20
2017-07-22T08:15:34.310Z,25.80
2017-07-22T08:18:11.925Z,25.50
2017-07-22T08:20:46.835Z,25.70
2017-07-22T08:23:21.670Z,25.70
2017-07-22T08:25:57.288Z,25.80
2017-07-22T08:28:32.205Z,26.10
2017-07-22T08:31:07.233Z,26.30
2017-07-22T08:33:42.071Z,26.10
2017-07-22T08:36:17.038Z,26.40
2017-07-22T08:38:51.959Z,26.40
2017-07-22T08:41:26.796Z,26.80
2017-07-22T08:44:01.724Z,26.90
2017-07-22T08:46:36.696Z,27.30
2017-07-22T08:49:11.500Z,27.50
2017-07-22T08:51:46.315Z,27.90
2017-07-22T08:54:21.448Z,27.80
2017-07-22T08:56:56.472Z,27.80
2017-07-22T08:59:34.997Z,27.40
2017-07-22T09:02:09.959Z,27.40
2017-07-22T09:04:44.863Z,27.50
2017-07-22T09:07:19.708Z,27.50
2017-07-22T09:09:54.500Z,27.70
2017-07-22T09:12:29.367Z,28.40
2017-07-22T09:15:04.288Z,28.70
2017-07-22T09:17:39.243Z,28.80
2017-07-22T09:20:14.194Z,28.50
2017-07-22T09:22:50.112Z,28.90
2017-07-22T09:25:27.796Z,28.70
2017-07-22T09:28:02.799Z,28.50
2017-07-22T09:30:37.648Z,28.80
2017-07-22T09:33:12.516Z,29.40
2017-07-22T09:35:47.331Z,29.30
2017-07-22T09:38:22.227Z,29.40
2017-07-22T09:40:58.719Z,29.60
2017-07-22T09:43:33.667Z,29.10
2017-07-22T09:46:08.562Z,29.60
2017-07-22T09:48:43.528Z,29.50
2017-07-22T09:51:18.316Z,30.10
2017-07-22T09:53:53.160Z,30.70
2017-07-22T09:56:28.103Z,30.90
2017-07-22T09:59:06.638Z,31.40
2017-07-22T10:01:41.571Z,31.40
2017-07-22T10:04:16.424Z,31.80
2017-07-22T10:06:51.323Z,31.80
2017-07-22T10:09:27.198Z,31.90
2017-07-22T10:12:02.123Z,31.70
2017-07-22T10:14:36.900Z,32.10
2017-07-22T10:17:11.814Z,32.40
2017-07-22T10:19:47.587Z,32.40
2017-07-22T10:22:22.501Z,32.90
2017-07-22T10:24:57.479Z,32.30
2017-07-22T10:27:32.407Z,32.40
2017-07-22T10:30:07.276Z,31.90
2017-07-22T10:32:42.212Z,31.50
2017-07-22T10:35:17.182Z,32.00
2017-07-22T10:37:51.988Z,32.20
2017-07-22T10:40:27.058Z,32.50
2017-07-22T10:43:02.632Z,33.00
2017-07-22T10:45:37.528Z,32.40
2017-07-22T10:48:12.319Z,33.70
2017-07-22T10:50:47.225Z,33.50
2017-07-22T10:53:22.078Z,33.90
2017-07-22T10:55:57.784Z,34.20
2017-07-22T10:58:32.724Z,34.30
2017-07-22T11:01:07.649Z,34.40
2017-07-22T11:03:42.455Z,34.80
2017-07-22T11:06:17.320Z,35.50
2017-07-22T11:08:52.093Z,35.50
2017-07-22T11:11:26.922Z,35.60
2017-07-22T11:14:01.883Z,35.80
2017-07-22T11:16:36.813Z,35.70
2017-07-22T11:19:11.779Z,35.30
2017-07-22T11:21:46.756Z,35.30
2017-07-22T11:24:22.418Z,35.10
2017-07-22T11:26:58.174Z,35.20
2017-07-22T11:29:33.109Z,34.50
2017-07-22T11:32:08.185Z,33.80
2017-07-22T11:34:43.076Z,33.60
2017-07-22T11:37:18.114Z,33.30
2017-07-22T11:39:53.139Z,32.90
2017-07-22T11:42:28.065Z,32.50
2017-07-22T11:45:02.856Z,32.30
2017-07-22T11:47:37.745Z,32.30
2017-07-22T11:50:12.655Z,32.20
2017-07-22T11:52:47.687Z,32.20
2017-07-22T11:55:22.658Z,31.70
2017-07-22T11:57:57.615Z,31.60
2017-07-22T12:00:32.579Z,31.80
2017-07-22T12:03:07.517Z,31.90
2017-07-22T12:05:48.606Z,32.00
2017-07-22T12:08:23.584Z,31.80
2017-07-22T12:10:58.384Z,31.80
2017-07-22T12:13:33.367Z,32.70
2017-07-22T12:16:08.294Z,33.90
2017-07-22T12:18:43.251Z,34.60
2017-07-22T12:21:18.093Z,35.60
2017-07-22T12:23:52.884Z,36.70
2017-07-22T12:26:27.644Z,36.60
2017-07-22T12:29:02.720Z,36.80
2017-07-22T12:31:37.520Z,36.50
2017-07-22T12:34:12.357Z,34.60
2017-07-22T12:36:47.123Z,33.90
2017-07-22T12:39:22.033Z,32.60
2017-07-22T12:41:56.939Z,32.20
2017-07-22T12:44:32.025Z,31.50
2017-07-22T12:47:06.818Z,30.20
2017-07-22T12:49:41.790Z,30.00
2017-07-22T12:52:18.042Z,29.70
2017-07-22T12:54:58.195Z,29.60
2017-07-22T12:57:33.167Z,28.90
2017-07-22T13:00:12.863Z,28.90
2017-07-22T13:02:47.646Z,28.50
2017-07-22T13:05:22.718Z,27.80
2017-07-22T13:07:57.489Z,27.10
2017-07-22T13:10:32.712Z,25.90
2017-07-22T13:13:07.639Z,24.80
2017-07-22T13:15:42.683Z,24.30
2017-07-22T13:18:18.137Z,24.00
2017-07-22T13:20:54.177Z,23.20
2017-07-22T13:23:29.254Z,22.10
2017-07-22T13:26:04.089Z,21.40
2017-07-22T13:28:38.912Z,21.00
2017-07-22T13:31:16.527Z,21.40
2017-07-22T13:33:51.327Z,21.90
2017-07-22T13:36:26.664Z,22.60
2017-07-22T13:39:01.572Z,22.70
2017-07-22T13:41:37.931Z,22.50
2017-07-22T13:44:12.759Z,22.70
2017-07-22T13:46:47.722Z,22.90
2017-07-22T13:49:22.722Z,23.10
2017-07-22T13:51:58.121Z,22.60
2017-07-22T13:54:33.362Z,22.60
2017-07-22T13:57:08.286Z,22.40
2017-07-22T13:59:43.374Z,22.20
2017-07-22T14:02:18.315Z,22.30
2017-07-22T14:04:54.011Z,22.40
2017-07-22T14:07:28.992Z,22.10
2017-07-22T14:10:03.770Z,22.30
2017-07-22T14:12:38.953Z,22.40
2017-07-22T14:15:13.852Z,22.20
2017-07-22T14:17:48.666Z,22.10
2017-07-22T14:20:23.592Z,22.20
2017-07-22T14:22:58.552Z,22.20
2017-07-22T14:25:33.351Z,22.20
2017-07-22T14:28:08.211Z,22.10
2017-07-22T14:30:43.037Z,22.10
2017-07-22T14:33:17.857Z,22.10
2017-07-22T14:35:53.703Z,22.10
2017-07-22T14:38:29.023Z,21.80
2017-07-22T14:41:04.107Z,21.70
2017-07-22T14:43:38.979Z,21.50
2017-07-22T14:46:39.197Z,21.80
2017-07-22T14:49:14.955Z,21.80
2017-07-22T14:52:01.794Z,21.90
2017-07-22T14:54:37.385Z,21.70
2017-07-22T14:57:14.877Z,22.00
2017-07-22T14:59:49.795Z,22.20
2017-07-22T15:02:24.606Z,21.90
2017-07-22T15:04:59.415Z,21.60
2017-07-22T15:07:34.305Z,21.70
2017-07-22T15:10:09.092Z,21.30
2017-07-22T15:12:43.871Z,21.40
2017-07-22T15:15:18.653Z,21.30
2017-07-22T15:17:58.208Z,21.30
2017-07-22T15:20:33.270Z,21.40
2017-07-22T15:23:08.072Z,19.90
2017-07-22T15:25:43.822Z,21.30
2017-07-22T15:28:22.991Z,21.40
2017-07-22T15:30:57.861Z,21.40
2017-07-22T15:33:32.749Z,21.50
2017-07-22T15:36:08.759Z,21.20
2017-07-22T15:38:45.718Z,21.20
2017-07-22T15:41:20.811Z,21.20
2017-07-22T15:43:55.867Z,21.20
2017-07-22T15:46:30.936Z,21.20
2017-07-22T15:49:05.847Z,21.30
2017-07-22T15:51:40.696Z,21.40
2017-07-22T15:54:15.529Z,21.30
2017-07-22T15:56:51.302Z,21.70
2017-07-22T15:59:27.290Z,22.50
2017-07-22T16:02:02.151Z,23.20
2017-07-22T16:04:37.053Z,24.00
2017-07-22T16:07:11.875Z,24.50
2017-07-22T16:09:46.818Z,25.00
2017-07-22T16:12:21.616Z,25.20
2017-07-22T16:14:56.665Z,25.70
2017-07-22T16:17:32.646Z,26.00
2017-07-22T16:20:07.710Z,26.00
2017-07-22T16:22:42.772Z,26.70
2017-07-22T16:25:17.567Z,26.90
2017-07-22T16:27:52.543Z,26.70
2017-07-22T16:30:28.143Z,26.40
2017-07-22T16:33:03.119Z,26.80
2017-07-22T16:35:37.979Z,27.10
2017-07-22T16:38:12.907Z,26.80
2017-07-22T16:40:47.698Z,26.30
2017-07-22T16:43:22.553Z,25.70
2017-07-22T16:45:57.360Z,25.50
2017-07-22T16:48:33.391Z,25.20
2017-07-22T16:51:08.418Z,25.00
2017-07-22T16:53:43.342Z,25.30
2017-07-22T16:56:18.152Z,26.30
2017-07-22T16:58:53.118Z,26.90
2017-07-22T17:01:27.990Z,27.20
2017-07-22T17:04:03.705Z,26.80
2017-07-22T17:06:39.524Z,26.20
2017-07-22T17:09:14.556Z,25.80
2017-07-22T17:11:55.189Z,25.40
2017-07-22T17:14:30.045Z,24.90
2017-07-22T17:17:04.864Z,24.40
2017-07-22T17:19:42.403Z,24.40
2017-07-22T17:31:54.097Z,22.40
2017-07-22T17:34:38.242Z,23.50
2017-07-22T17:37:15.117Z,23.50
2017-07-22T17:39:51.096Z,23.40
2017-07-22T17:42:25.907Z,23.20
2017-07-22T17:45:00.957Z,23.00
2017-07-22T17:47:35.884Z,23.10
2017-07-22T17:50:11.781Z,23.10
2017-07-22T17:52:52.458Z,22.80
2017-07-22T17:55:35.255Z,22.90
2017-07-22T17:58:13.671Z,23.00
2017-07-22T18:00:48.610Z,22.80
2017-07-22T18:03:23.573Z,22.50
2017-07-22T18:05:58.372Z,22.60
2017-07-22T18:08:33.159Z,22.70
2017-07-22T18:11:08.758Z,22.50
2017-07-22T18:13:43.702Z,22.40
2017-07-22T18:16:18.520Z,22.10
2017-07-22T18:18:53.640Z,22.40
2017-07-22T18:21:28.510Z,22.00
2017-07-22T18:24:03.291Z,22.20
2017-07-22T18:26:38.214Z,22.20
2017-07-22T18:29:13.167Z,22.20
2017-07-22T18:31:47.985Z,22.20
2017-07-22T18:34:22.907Z,22.10
2017-07-22T18:37:08.555Z,22.10
2017-07-22T18:39:43.451Z,21.90
2017-07-22T18:42:24.100Z,21.80
2017-07-22T18:45:04.276Z,21.70
2017-07-22T18:47:39.271Z,21.50
2017-07-22T18:50:46.301Z,21.60
2017-07-22T18:53:23.883Z,21.50
2017-07-22T18:55:58.707Z,21.30
2017-07-22T18:58:34.614Z,21.40
2017-07-22T19:01:20.748Z,21.50
2017-07-22T19:03:55.688Z,21.30
2017-07-22T19:06:34.785Z,21.10
2017-07-22T19:09:10.452Z,21.20
2017-07-22T19:11:47.372Z,21.10
2017-07-22T19:14:26.060Z,21.10
2017-07-22T19:17:00.983Z,20.90
2017-07-22T19:19:35.814Z,21.00
2017-07-22T19:22:10.749Z,20.80
2017-07-22T19:24:46.611Z,20.70
2017-07-22T19:27:28.492Z,20.70
2017-07-22T19:30:04.254Z,20.80
2017-07-22T19:32:40.145Z,20.50
2017-07-22T19:35:17.091Z,20.40
2017-07-22T19:37:52.862Z,20.20
2017-07-22T19:40:27.774Z,20.30
2017-07-22T19:43:14.373Z,20.40
2017-07-22T19:45:51.150Z,20.40
2017-07-22T19:48:26.196Z,20.50
2017-07-22T19:51:01.124Z,20.50
2017-07-22T19:53:37.911Z,20.60
2017-07-22T19:56:12.923Z,20.50
2017-07-22T19:58:48.063Z,20.50
2017-07-22T20:01:22.946Z,20.40
2017-07-22T20:03:58.231Z,20.50
2017-07-22T20:06:33.156Z,20.50
2017-07-22T20:09:09.356Z,20.50
2017-07-22T20:11:44.507Z,20.30
2017-07-22T20:14:19.632Z,20.10
2017-07-22T20:16:56.433Z,20.10
2017-07-22T20:19:31.800Z,20.00
2017-07-22T20:22:07.788Z,20.00
2017-07-22T20:24:43.539Z,20.10
2017-07-22T20:27:18.766Z,20.00
2017-07-22T20:29:53.806Z,20.00
2017-07-22T20:32:29.116Z,19.70
2017-07-22T20:35:04.293Z,19.90
2017-07-22T20:37:48.776Z,19.90
2017-07-22T20:40:23.947Z,19.80
2017-07-22T20:42:59.432Z,19.80
2017-07-22T20:45:34.888Z,19.70
2017-07-22T20:48:09.776Z,19.70
2017-07-22T20:50:45.299Z,19.80
2017-07-22T20:53:24.630Z,19.70
2017-07-22T20:55:59.553Z,19.80
2017-07-22T20:58:34.701Z,19.60
2017-07-22T21:01:09.896Z,19.70
2017-07-22T21:03:45.291Z,19.60
2017-07-22T21:06:20.684Z,19.60
2017-07-22T21:08:56.767Z,19.60
2017-07-22T21:11:32.113Z,19.70
2017-07-22T21:14:08.443Z,19.60
2017-07-22T21:16:43.304Z,19.60
2017-07-22T21:19:18.151Z,19.70
2017-07-22T21:21:53.348Z,19.70
2017-07-22T21:24:28.319Z,19.70
2017-07-22T21:27:03.770Z,19.70
2017-07-22T21:29:39.063Z,19.80
2017-07-22T21:32:15.139Z,19.70
2017-07-22T21:34:50.274Z,19.60
2017-07-22T21:37:25.216Z,19.60
2017-07-22T21:40:00.372Z,19.40
2017-07-22T21:42:35.756Z,19.70
2017-07-22T21:45:10.678Z,19.40
2017-07-22T21:47:46.937Z,19.40
2017-07-22T21:50:22.048Z,19.60
2017-07-22T21:52:57.351Z,19.70
2017-07-22T21:55:32.256Z,19.70
2017-07-22T21:58:08.491Z,19.80
2017-07-22T22:00:44.238Z,19.90
2017-07-22T22:03:20.586Z,19.90
2017-07-22T22:05:56.479Z,19.90
2017-07-22T22:08:31.533Z,19.90
2017-07-22T22:11:06.505Z,19.90
2017-07-22T22:13:41.410Z,19.90
2017-07-22T22:16:16.310Z,19.90
2017-07-22T22:18:51.282Z,20.00
2017-07-22T22:21:26.256Z,20.00
2017-07-22T22:24:02.262Z,20.10
2017-07-22T22:26:37.014Z,20.00
2017-07-22T22:29:11.870Z,20.00
2017-07-22T22:31:46.792Z,20.10
2017-07-22T22:34:21.683Z,20.00
2017-07-22T22:36:59.928Z,19.60
2017-07-22T22:39:34.706Z,19.80
2017-07-22T22:42:09.879Z,19.50
2017-07-22T22:44:44.732Z,19.70
2017-07-22T22:47:24.717Z,19.80
2017-07-22T22:50:01.860Z,20.00
2017-07-22T22:52:36.687Z,19.60
2017-07-22T22:55:11.531Z,19.80
2017-07-22T22:57:46.323Z,19.90
2017-07-22T23:00:22.247Z,19.80
2017-07-22T23:02:57.319Z,19.60
2017-07-22T23:05:32.116Z,19.60
2017-07-22T23:08:06.911Z,19.80
2017-07-22T23:10:41.796Z,19.80
2017-07-22T23:13:16.767Z,19.80
2017-07-22T23:15:51.715Z,19.70
2017-07-22T23:18:27.243Z,19.60
2017-07-22T23:21:03.379Z,19.60
2017-07-22T23:23:38.293Z,19.80
2017-07-22T23:26:13.222Z,19.80
2017-07-22T23:28:48.852Z,19.80
2017-07-22T23:31:23.770Z,19.80
2017-07-22T23:33:58.688Z,20.00
2017-07-22T23:36:33.642Z,19.90
2017-07-22T23:39:09.319Z,19.90
2017-07-22T23:41:44.419Z,20.10
2017-07-22T23:44:19.263Z,20.00
2017-07-22T23:46:54.196Z,20.10
2017-07-22T23:49:29.264Z,20.10
2017-07-22T23:52:04.275Z,20.00
2017-07-22T23:54:39.189Z,19.90
2017-07-22T23:57:14.971Z,19.80
2017-07-22T23:59:49.931Z,19.60
